BAW146 EGPH-EGLL
Flight info
| Callsign | BAW146 |
|---|---|
| Flight time | 1h 6m |
| Altitude | 33000 |
| Route | TLA DCT VAMEB UL612 HON |
| Aircraft | A20N/M-SDE2E3FGHIRWXY/LB1 |
Departure
| Time | 2026-04-22 18:04 |
|---|---|
| Airport | Edinburgh Airport (EGPH) |
Arrival
| Time | 2026-04-22 19:11 |
|---|---|
| Airport | London Heathrow Airport (EGLL) |
| Time | Latitude | Longitude | Altitude | Speed | Heading |
|---|---|---|---|---|---|
| 2026-04-22 17:40 | 55.94939 | -3.36356 | 113 ft | 0 kts | 148° |
| 2026-04-22 17:43 | 55.94940 | -3.36356 | 113 ft | 0 kts | 148° |
| 2026-04-22 17:51 | 55.94940 | -3.36357 | 112 ft | 0 kts | 148° |
| 2026-04-22 17:53 | 55.94948 | -3.36366 | 111 ft | 2 kts | 148° |
| 2026-04-22 17:53 | 55.94962 | -3.36381 | 112 ft | 2 kts | 148° |
| 2026-04-22 17:53 | 55.94977 | -3.36397 | 112 ft | 2 kts | 160° |
| 2026-04-22 17:54 | 55.94993 | -3.36402 | 114 ft | 2 kts | 186° |
| 2026-04-22 17:54 | 55.95008 | -3.36395 | 115 ft | 2 kts | 208° |
| 2026-04-22 17:54 | 55.95019 | -3.36382 | 112 ft | 1 kts | 229° |
| 2026-04-22 17:54 | 55.95021 | -3.36379 | 113 ft | 0 kts | 232° |
| 2026-04-22 17:57 | 55.95016 | -3.36389 | 112 ft | 3 kts | 232° |
| 2026-04-22 17:57 | 55.94998 | -3.36443 | 115 ft | 7 kts | 240° |
| 2026-04-22 17:57 | 55.94964 | -3.36543 | 115 ft | 12 kts | 238° |
| 2026-04-22 17:58 | 55.94915 | -3.36687 | 112 ft | 12 kts | 238° |
| 2026-04-22 17:58 | 55.94907 | -3.36710 | 116 ft | 4 kts | 238° |
| 2026-04-22 17:58 | 55.94890 | -3.36777 | 114 ft | 8 kts | 257° |
| 2026-04-22 17:58 | 55.94897 | -3.36819 | 112 ft | 2 kts | 315° |
| 2026-04-22 17:59 | 55.94905 | -3.36827 | 114 ft | 0 kts | 332° |
| 2026-04-22 18:00 | 55.94911 | -3.36832 | 116 ft | 3 kts | 334° |
| 2026-04-22 18:00 | 55.94920 | -3.36910 | 114 ft | 8 kts | 257° |
| 2026-04-22 18:00 | 55.94887 | -3.37014 | 115 ft | 12 kts | 237° |
| 2026-04-22 18:00 | 55.94835 | -3.37162 | 114 ft | 16 kts | 238° |
| 2026-04-22 18:01 | 55.94770 | -3.37357 | 113 ft | 20 kts | 239° |
| 2026-04-22 18:01 | 55.94689 | -3.37596 | 114 ft | 25 kts | 239° |
| 2026-04-22 18:01 | 55.94594 | -3.37883 | 114 ft | 29 kts | 238° |
| 2026-04-22 18:01 | 55.94484 | -3.38201 | 113 ft | 32 kts | 238° |
| 2026-04-22 18:02 | 55.94401 | -3.38447 | 114 ft | 22 kts | 239° |
| 2026-04-22 18:02 | 55.94318 | -3.38692 | 113 ft | 15 kts | 239° |
| 2026-04-22 18:02 | 55.94292 | -3.38864 | 116 ft | 12 kts | 310° |
| 2026-04-22 18:02 | 55.94364 | -3.38955 | 112 ft | 15 kts | 332° |
| 2026-04-22 18:03 | 55.94431 | -3.38925 | 114 ft | 5 kts | 59° |
| 2026-04-22 18:03 | 55.94432 | -3.38920 | 114 ft | 0 kts | 59° |
| 2026-04-22 18:03 | 55.94502 | -3.38715 | 112 ft | 55 kts | 59° |
| 2026-04-22 18:03 | 55.94814 | -3.37794 | 113 ft | 116 kts | 59° |
| 2026-04-22 18:04 | 55.95274 | -3.36422 | 509 ft | 126 kts | 61° |
| 2026-04-22 18:04 | 55.95731 | -3.35022 | 1137 ft | 132 kts | 63° |
| 2026-04-22 18:04 | 55.96204 | -3.33607 | 1814 ft | 134 kts | 61° |
| 2026-04-22 18:04 | 55.96831 | -3.32252 | 2301 ft | 152 kts | 47° |
| 2026-04-22 18:05 | 55.97706 | -3.30935 | 2706 ft | 178 kts | 44° |
| 2026-04-22 18:05 | 55.98737 | -3.29371 | 3128 ft | 209 kts | 45° |
| 2026-04-22 18:05 | 55.99929 | -3.27546 | 3678 ft | 239 kts | 45° |
| 2026-04-22 18:05 | 56.01247 | -3.25520 | 4409 ft | 260 kts | 45° |
| 2026-04-22 18:06 | 56.02560 | -3.23203 | 5288 ft | 266 kts | 57° |
| 2026-04-22 18:06 | 56.03335 | -3.20229 | 6199 ft | 263 kts | 84° |
| 2026-04-22 18:06 | 56.03225 | -3.17019 | 7334 ft | 261 kts | 111° |
| 2026-04-22 18:06 | 56.02270 | -3.14304 | 8388 ft | 262 kts | 137° |
| 2026-04-22 18:07 | 56.01263 | -3.13019 | 9030 ft | 268 kts | 154° |
| 2026-04-22 18:07 | 55.98826 | -3.12281 | 10447 ft | 273 kts | 187° |
| 2026-04-22 18:07 | 55.97002 | -3.13242 | 11463 ft | 280 kts | 199° |
| 2026-04-22 18:07 | 55.95110 | -3.14539 | 11952 ft | 302 kts | 199° |
| 2026-04-22 18:08 | 55.93050 | -3.15832 | 12344 ft | 325 kts | 197° |
| 2026-04-22 18:08 | 55.90843 | -3.17014 | 13076 ft | 335 kts | 195° |
| 2026-04-22 18:08 | 55.88585 | -3.18101 | 14073 ft | 337 kts | 194° |
| 2026-04-22 18:08 | 55.86311 | -3.19135 | 15005 ft | 339 kts | 194° |
| 2026-04-22 18:09 | 55.84013 | -3.20157 | 15856 ft | 342 kts | 194° |
| 2026-04-22 18:09 | 55.81689 | -3.21188 | 16622 ft | 349 kts | 194° |
| 2026-04-22 18:09 | 55.79321 | -3.22241 | 17370 ft | 355 kts | 194° |
| 2026-04-22 18:09 | 55.76919 | -3.23311 | 18261 ft | 356 kts | 194° |
| 2026-04-22 18:10 | 55.74502 | -3.24387 | 19030 ft | 360 kts | 194° |
| 2026-04-22 18:10 | 55.72058 | -3.25471 | 19677 ft | 365 kts | 195° |
| 2026-04-22 18:10 | 55.69574 | -3.26573 | 20293 ft | 371 kts | 195° |
| 2026-04-22 18:10 | 55.67079 | -3.27680 | 20898 ft | 376 kts | 195° |
| 2026-04-22 18:11 | 55.64496 | -3.28822 | 21608 ft | 380 kts | 196° |
| 2026-04-22 18:11 | 55.61951 | -3.29951 | 22217 ft | 386 kts | 196° |
| 2026-04-22 18:11 | 55.59332 | -3.31115 | 22825 ft | 391 kts | 196° |
| 2026-04-22 18:11 | 55.56679 | -3.32291 | 23467 ft | 395 kts | 196° |
| 2026-04-22 18:12 | 55.53993 | -3.33478 | 24084 ft | 400 kts | 196° |
| 2026-04-22 18:12 | 55.51238 | -3.34340 | 24687 ft | 404 kts | 188° |
| 2026-04-22 18:12 | 55.49375 | -3.34484 | 25138 ft | 406 kts | 182° |
| 2026-04-22 18:12 | 55.45585 | -3.33709 | 25823 ft | 415 kts | 171° |
| 2026-04-22 18:13 | 55.42752 | -3.32612 | 26348 ft | 419 kts | 171° |
| 2026-04-22 18:13 | 55.39878 | -3.31507 | 26744 ft | 424 kts | 171° |
| 2026-04-22 18:13 | 55.36985 | -3.30406 | 27255 ft | 428 kts | 171° |
| 2026-04-22 18:13 | 55.34065 | -3.29304 | 27741 ft | 431 kts | 171° |
| 2026-04-22 18:14 | 55.31124 | -3.28205 | 28183 ft | 434 kts | 171° |
| 2026-04-22 18:14 | 55.28158 | -3.27101 | 28649 ft | 437 kts | 172° |
| 2026-04-22 18:14 | 55.26186 | -3.26368 | 28946 ft | 439 kts | 172° |
| 2026-04-22 18:14 | 55.23189 | -3.25253 | 29353 ft | 442 kts | 172° |
| 2026-04-22 18:15 | 55.20170 | -3.24134 | 29756 ft | 445 kts | 171° |
| 2026-04-22 18:15 | 55.17128 | -3.23005 | 30170 ft | 448 kts | 172° |
| 2026-04-22 18:15 | 55.14064 | -3.21868 | 30566 ft | 451 kts | 172° |
| 2026-04-22 18:15 | 55.09979 | -3.20355 | 31051 ft | 454 kts | 172° |
| 2026-04-22 18:16 | 55.07883 | -3.19581 | 31298 ft | 456 kts | 172° |
| 2026-04-22 18:16 | 55.04773 | -3.18433 | 31671 ft | 458 kts | 172° |
| 2026-04-22 18:16 | 55.01650 | -3.17281 | 32126 ft | 458 kts | 172° |
| 2026-04-22 18:16 | 54.98539 | -3.16134 | 32616 ft | 457 kts | 172° |
| 2026-04-22 18:17 | 54.95431 | -3.14992 | 33070 ft | 456 kts | 171° |
| 2026-04-22 18:17 | 54.92328 | -3.13853 | 33375 ft | 454 kts | 171° |
| 2026-04-22 18:17 | 54.89277 | -3.12735 | 33444 ft | 453 kts | 171° |
| 2026-04-22 18:18 | 54.83069 | -3.10468 | 33445 ft | 453 kts | 172° |
| 2026-04-22 18:18 | 54.76905 | -3.08223 | 33438 ft | 453 kts | 172° |
| 2026-04-22 18:19 | 54.70783 | -3.06001 | 33419 ft | 453 kts | 171° |
| 2026-04-22 18:19 | 54.64608 | -3.03768 | 33436 ft | 453 kts | 171° |
| 2026-04-22 18:20 | 54.58435 | -3.01539 | 33425 ft | 453 kts | 172° |
| 2026-04-22 18:20 | 54.52269 | -2.99322 | 33433 ft | 452 kts | 172° |
| 2026-04-22 18:21 | 54.46109 | -2.97113 | 33416 ft | 453 kts | 172° |
| 2026-04-22 18:21 | 54.39941 | -2.94909 | 33414 ft | 453 kts | 172° |
| 2026-04-22 18:22 | 54.33773 | -2.92711 | 33420 ft | 453 kts | 172° |
| 2026-04-22 18:22 | 54.27601 | -2.90518 | 33409 ft | 453 kts | 172° |
| 2026-04-22 18:23 | 54.21429 | -2.88332 | 33408 ft | 453 kts | 172° |
| 2026-04-22 18:23 | 54.15292 | -2.86165 | 33396 ft | 454 kts | 172° |
| 2026-04-22 18:24 | 54.06011 | -2.82901 | 33390 ft | 454 kts | 172° |
| 2026-04-22 18:25 | 53.96861 | -2.78485 | 33401 ft | 461 kts | 160° |
| 2026-04-22 18:25 | 53.90973 | -2.74178 | 33399 ft | 461 kts | 160° |
| 2026-04-22 18:26 | 53.82106 | -2.67767 | 33411 ft | 462 kts | 160° |
| 2026-04-22 18:26 | 53.76185 | -2.63519 | 33399 ft | 462 kts | 160° |
| 2026-04-22 18:27 | 53.70262 | -2.59286 | 33377 ft | 463 kts | 160° |
| 2026-04-22 18:27 | 53.64322 | -2.55049 | 33378 ft | 464 kts | 160° |
| 2026-04-22 18:28 | 53.58368 | -2.50820 | 33390 ft | 465 kts | 160° |
| 2026-04-22 18:28 | 53.52404 | -2.46593 | 33400 ft | 465 kts | 160° |
| 2026-04-22 18:29 | 53.46440 | -2.42379 | 33395 ft | 466 kts | 160° |
| 2026-04-22 18:29 | 53.40459 | -2.38165 | 33412 ft | 466 kts | 160° |
| 2026-04-22 18:30 | 53.31487 | -2.31869 | 33407 ft | 466 kts | 160° |
| 2026-04-22 18:31 | 53.25500 | -2.27684 | 33407 ft | 466 kts | 160° |
| 2026-04-22 18:31 | 53.19515 | -2.23513 | 33401 ft | 466 kts | 160° |
| 2026-04-22 18:32 | 53.13527 | -2.19353 | 33408 ft | 466 kts | 160° |
| 2026-04-22 18:32 | 53.07542 | -2.15209 | 33397 ft | 466 kts | 160° |
| 2026-04-22 18:33 | 53.01556 | -2.11074 | 33394 ft | 466 kts | 160° |
| 2026-04-22 18:33 | 52.95571 | -2.06953 | 33376 ft | 465 kts | 160° |
| 2026-04-22 18:34 | 52.89596 | -2.02852 | 33370 ft | 465 kts | 160° |
| 2026-04-22 18:34 | 52.83584 | -1.98733 | 33377 ft | 470 kts | 159° |
| 2026-04-22 18:35 | 52.77589 | -1.94635 | 33352 ft | 468 kts | 160° |
| 2026-04-22 18:35 | 52.74584 | -1.92594 | 32899 ft | 467 kts | 160° |
| 2026-04-22 18:35 | 52.71570 | -1.90550 | 32055 ft | 470 kts | 160° |
| 2026-04-22 18:35 | 52.68529 | -1.88491 | 31011 ft | 476 kts | 159° |
| 2026-04-22 18:36 | 52.65444 | -1.86404 | 29771 ft | 483 kts | 159° |
| 2026-04-22 18:36 | 52.62335 | -1.84302 | 28803 ft | 482 kts | 159° |
| 2026-04-22 18:36 | 52.59257 | -1.82221 | 28193 ft | 473 kts | 159° |
| 2026-04-22 18:36 | 52.56258 | -1.80196 | 27863 ft | 459 kts | 159° |
| 2026-04-22 18:37 | 52.53330 | -1.78221 | 27343 ft | 451 kts | 159° |
| 2026-04-22 18:37 | 52.50451 | -1.76285 | 26772 ft | 444 kts | 159° |
| 2026-04-22 18:37 | 52.47598 | -1.74370 | 26170 ft | 439 kts | 158° |
| 2026-04-22 18:37 | 52.44795 | -1.72490 | 25666 ft | 432 kts | 159° |
| 2026-04-22 18:38 | 52.42024 | -1.70635 | 25137 ft | 427 kts | 158° |
| 2026-04-22 18:38 | 52.39297 | -1.68812 | 24606 ft | 423 kts | 158° |
| 2026-04-22 18:38 | 52.36619 | -1.66765 | 23853 ft | 425 kts | 150° |
| 2026-04-22 18:39 | 52.31969 | -1.61196 | 23005 ft | 405 kts | 139° |
| 2026-04-22 18:39 | 52.29842 | -1.58183 | 22374 ft | 403 kts | 139° |
| 2026-04-22 18:39 | 52.27738 | -1.55204 | 21940 ft | 397 kts | 139° |
| 2026-04-22 18:39 | 52.25655 | -1.52271 | 21448 ft | 393 kts | 139° |
| 2026-04-22 18:40 | 52.23596 | -1.49385 | 20936 ft | 388 kts | 139° |
| 2026-04-22 18:40 | 52.21558 | -1.46530 | 20407 ft | 383 kts | 138° |
| 2026-04-22 18:40 | 52.19537 | -1.43704 | 19797 ft | 382 kts | 138° |
| 2026-04-22 18:40 | 52.17538 | -1.40906 | 19298 ft | 376 kts | 138° |
| 2026-04-22 18:41 | 52.15596 | -1.38191 | 18755 ft | 372 kts | 139° |
| 2026-04-22 18:41 | 52.13633 | -1.35447 | 18160 ft | 368 kts | 138° |
| 2026-04-22 18:41 | 52.11708 | -1.32759 | 17675 ft | 361 kts | 139° |
| 2026-04-22 18:41 | 52.09817 | -1.30125 | 17158 ft | 355 kts | 139° |
| 2026-04-22 18:42 | 52.07959 | -1.27545 | 16670 ft | 348 kts | 139° |
| 2026-04-22 18:42 | 52.06134 | -1.25011 | 16239 ft | 341 kts | 139° |
| 2026-04-22 18:42 | 52.04363 | -1.22549 | 16044 ft | 328 kts | 139° |
| 2026-04-22 18:42 | 52.02667 | -1.20192 | 15884 ft | 314 kts | 139° |
| 2026-04-22 18:43 | 52.01043 | -1.17943 | 15752 ft | 300 kts | 139° |
| 2026-04-22 18:43 | 51.99485 | -1.15788 | 15654 ft | 288 kts | 139° |
| 2026-04-22 18:43 | 51.97989 | -1.13722 | 15519 ft | 277 kts | 139° |
| 2026-04-22 18:43 | 51.96550 | -1.11733 | 15370 ft | 267 kts | 139° |
| 2026-04-22 18:44 | 51.95166 | -1.09825 | 15334 ft | 258 kts | 139° |
| 2026-04-22 18:44 | 51.93799 | -1.07942 | 15214 ft | 257 kts | 139° |
| 2026-04-22 18:44 | 51.92427 | -1.06053 | 14813 ft | 260 kts | 139° |
| 2026-04-22 18:44 | 51.91057 | -1.04165 | 14495 ft | 259 kts | 139° |
| 2026-04-22 18:45 | 51.89683 | -1.02275 | 14057 ft | 261 kts | 139° |
| 2026-04-22 18:45 | 51.88304 | -1.00382 | 13689 ft | 259 kts | 139° |
| 2026-04-22 18:45 | 51.86953 | -0.98528 | 13464 ft | 251 kts | 139° |
| 2026-04-22 18:45 | 51.85675 | -0.96602 | 12991 ft | 254 kts | 131° |
| 2026-04-22 18:46 | 51.84670 | -0.94262 | 12642 ft | 252 kts | 119° |
| 2026-04-22 18:46 | 51.83900 | -0.91708 | 12247 ft | 252 kts | 117° |
| 2026-04-22 18:46 | 51.83139 | -0.89179 | 11916 ft | 250 kts | 117° |
| 2026-04-22 18:46 | 51.82370 | -0.86655 | 11511 ft | 251 kts | 117° |
| 2026-04-22 18:47 | 51.81601 | -0.84139 | 11158 ft | 249 kts | 117° |
| 2026-04-22 18:47 | 51.80837 | -0.81646 | 10839 ft | 246 kts | 117° |
| 2026-04-22 18:47 | 51.80076 | -0.79171 | 10515 ft | 245 kts | 117° |
| 2026-04-22 18:47 | 51.79324 | -0.76715 | 10191 ft | 243 kts | 117° |
| 2026-04-22 18:48 | 51.78580 | -0.74288 | 9867 ft | 240 kts | 117° |
| 2026-04-22 18:48 | 51.77843 | -0.71896 | 9563 ft | 237 kts | 117° |
| 2026-04-22 18:48 | 51.77116 | -0.69542 | 9380 ft | 232 kts | 117° |
| 2026-04-22 18:48 | 51.76394 | -0.67202 | 9348 ft | 234 kts | 117° |
| 2026-04-22 18:49 | 51.75669 | -0.64855 | 9347 ft | 232 kts | 117° |
| 2026-04-22 18:49 | 51.74947 | -0.62516 | 9348 ft | 235 kts | 117° |
| 2026-04-22 18:49 | 51.74218 | -0.60159 | 9312 ft | 234 kts | 117° |
| 2026-04-22 18:49 | 51.73494 | -0.57820 | 9117 ft | 233 kts | 118° |
| 2026-04-22 18:50 | 51.72497 | -0.55808 | 8832 ft | 230 kts | 143° |
| 2026-04-22 18:50 | 51.71013 | -0.54894 | 8513 ft | 232 kts | 174° |
| 2026-04-22 18:50 | 51.69375 | -0.55008 | 8356 ft | 239 kts | 181° |
| 2026-04-22 18:50 | 51.67734 | -0.55395 | 8344 ft | 241 kts | 198° |
| 2026-04-22 18:51 | 51.66356 | -0.56969 | 8351 ft | 251 kts | 227° |
| 2026-04-22 18:51 | 51.65319 | -0.59255 | 8342 ft | 254 kts | 230° |
| 2026-04-22 18:51 | 51.64309 | -0.61584 | 8347 ft | 253 kts | 231° |
| 2026-04-22 18:51 | 51.63301 | -0.63904 | 8346 ft | 253 kts | 231° |
| 2026-04-22 18:52 | 51.62287 | -0.66222 | 8351 ft | 253 kts | 231° |
| 2026-04-22 18:52 | 51.61273 | -0.68530 | 8347 ft | 253 kts | 231° |
| 2026-04-22 18:52 | 51.60256 | -0.70843 | 8336 ft | 253 kts | 231° |
| 2026-04-22 18:52 | 51.59265 | -0.73110 | 8193 ft | 250 kts | 231° |
| 2026-04-22 18:53 | 51.58267 | -0.75406 | 7887 ft | 251 kts | 231° |
| 2026-04-22 18:53 | 51.57272 | -0.77701 | 7566 ft | 250 kts | 231° |
| 2026-04-22 18:53 | 51.56279 | -0.79985 | 7272 ft | 249 kts | 231° |
| 2026-04-22 18:53 | 51.55289 | -0.82261 | 6983 ft | 247 kts | 230° |
| 2026-04-22 18:54 | 51.54058 | -0.84065 | 6662 ft | 236 kts | 201° |
| 2026-04-22 18:54 | 51.52504 | -0.84674 | 6272 ft | 230 kts | 181° |
| 2026-04-22 18:54 | 51.50912 | -0.84892 | 5935 ft | 229 kts | 180° |
| 2026-04-22 18:54 | 51.49340 | -0.84964 | 5641 ft | 222 kts | 164° |
| 2026-04-22 18:55 | 51.48069 | -0.83716 | 5273 ft | 217 kts | 124° |
| 2026-04-22 18:55 | 51.47568 | -0.81469 | 4866 ft | 219 kts | 99° |
| 2026-04-22 18:55 | 51.47503 | -0.79011 | 4359 ft | 220 kts | 90° |
| 2026-04-22 18:55 | 51.47551 | -0.76576 | 3866 ft | 216 kts | 91° |
| 2026-04-22 18:56 | 51.47564 | -0.74187 | 3403 ft | 212 kts | 91° |
| 2026-04-22 18:56 | 51.47579 | -0.71869 | 3053 ft | 203 kts | 91° |
| 2026-04-22 18:56 | 51.47594 | -0.69656 | 2765 ft | 193 kts | 90° |
| 2026-04-22 18:56 | 51.47607 | -0.67552 | 2494 ft | 184 kts | 90° |
| 2026-04-22 18:57 | 51.47620 | -0.65545 | 2243 ft | 176 kts | 90° |
| 2026-04-22 18:57 | 51.47632 | -0.63679 | 2045 ft | 157 kts | 89° |
| 2026-04-22 18:57 | 51.47643 | -0.62034 | 1819 ft | 138 kts | 89° |
| 2026-04-22 18:57 | 51.47652 | -0.60585 | 1640 ft | 121 kts | 89° |
| 2026-04-22 18:58 | 51.47661 | -0.59324 | 1505 ft | 116 kts | 89° |
| 2026-04-22 18:58 | 51.47673 | -0.57927 | 1524 ft | 136 kts | 87° |
| 2026-04-22 18:58 | 51.47716 | -0.56306 | 1875 ft | 146 kts | 87° |
| 2026-04-22 18:58 | 51.47752 | -0.54567 | 2549 ft | 171 kts | 88° |
| 2026-04-22 18:59 | 51.47792 | -0.52568 | 3077 ft | 187 kts | 90° |
| 2026-04-22 18:59 | 51.47808 | -0.50474 | 3002 ft | 185 kts | 91° |
| 2026-04-22 18:59 | 51.48157 | -0.48514 | 2997 ft | 191 kts | 59° |
| 2026-04-22 18:59 | 51.49248 | -0.47191 | 2999 ft | 205 kts | 29° |
| 2026-04-22 19:00 | 51.50185 | -0.46872 | 2990 ft | 214 kts | 6° |
| 2026-04-22 19:00 | 51.51640 | -0.47576 | 2996 ft | 228 kts | 330° |
| 2026-04-22 19:00 | 51.52675 | -0.49528 | 2997 ft | 235 kts | 295° |
| 2026-04-22 19:00 | 51.53265 | -0.51984 | 2994 ft | 236 kts | 290° |
| 2026-04-22 19:01 | 51.53829 | -0.54455 | 2998 ft | 236 kts | 291° |
| 2026-04-22 19:01 | 51.54391 | -0.56945 | 2996 ft | 237 kts | 290° |
| 2026-04-22 19:01 | 51.54958 | -0.59438 | 2996 ft | 238 kts | 290° |
| 2026-04-22 19:01 | 51.55526 | -0.61932 | 2994 ft | 238 kts | 290° |
| 2026-04-22 19:02 | 51.56090 | -0.64433 | 2993 ft | 237 kts | 286° |
| 2026-04-22 19:02 | 51.56145 | -0.67026 | 2998 ft | 233 kts | 252° |
| 2026-04-22 19:02 | 51.55534 | -0.69411 | 2992 ft | 230 kts | 240° |
| 2026-04-22 19:02 | 51.54862 | -0.71742 | 2995 ft | 229 kts | 240° |
| 2026-04-22 19:03 | 51.54225 | -0.73988 | 2991 ft | 212 kts | 240° |
| 2026-04-22 19:03 | 51.53635 | -0.76096 | 2997 ft | 207 kts | 240° |
| 2026-04-22 19:03 | 51.53045 | -0.78213 | 2995 ft | 208 kts | 240° |
| 2026-04-22 19:03 | 51.52455 | -0.80330 | 2995 ft | 208 kts | 240° |
| 2026-04-22 19:04 | 51.51791 | -0.82372 | 2987 ft | 202 kts | 222° |
| 2026-04-22 19:04 | 51.50674 | -0.83460 | 2993 ft | 182 kts | 181° |
| 2026-04-22 19:04 | 51.49525 | -0.83090 | 2994 ft | 166 kts | 139° |
| 2026-04-22 19:04 | 51.48802 | -0.81709 | 2994 ft | 161 kts | 121° |
| 2026-04-22 19:05 | 51.48211 | -0.80190 | 2987 ft | 159 kts | 111° |
| 2026-04-22 19:05 | 51.48118 | -0.78439 | 2997 ft | 162 kts | 90° |
| 2026-04-22 19:05 | 51.48133 | -0.76638 | 2996 ft | 160 kts | 95° |
| 2026-04-22 19:05 | 51.47916 | -0.74905 | 2996 ft | 158 kts | 105° |
| 2026-04-22 19:06 | 51.47628 | -0.73202 | 2995 ft | 159 kts | 103° |
| 2026-04-22 19:06 | 51.47507 | -0.71446 | 2946 ft | 158 kts | 91° |
| 2026-04-22 19:06 | 51.47548 | -0.69693 | 2773 ft | 158 kts | 89° |
| 2026-04-22 19:07 | 51.47614 | -0.66238 | 2336 ft | 155 kts | 90° |
| 2026-04-22 19:07 | 51.47626 | -0.64502 | 2121 ft | 155 kts | 89° |
| 2026-04-22 19:07 | 51.47638 | -0.62795 | 1900 ft | 146 kts | 89° |
| 2026-04-22 19:07 | 51.47648 | -0.61322 | 1719 ft | 122 kts | 89° |
| 2026-04-22 19:08 | 51.47656 | -0.60041 | 1555 ft | 110 kts | 89° |
| 2026-04-22 19:08 | 51.47664 | -0.58807 | 1408 ft | 113 kts | 88° |
| 2026-04-22 19:08 | 51.47672 | -0.57563 | 1255 ft | 109 kts | 89° |
| 2026-04-22 19:08 | 51.47681 | -0.56335 | 1103 ft | 111 kts | 89° |
| 2026-04-22 19:09 | 51.47690 | -0.55069 | 948 ft | 114 kts | 88° |
| 2026-04-22 19:09 | 51.47708 | -0.53800 | 752 ft | 113 kts | 87° |
| 2026-04-22 19:09 | 51.47732 | -0.52511 | 614 ft | 118 kts | 88° |
| 2026-04-22 19:09 | 51.47742 | -0.51195 | 434 ft | 115 kts | 90° |
| 2026-04-22 19:10 | 51.47745 | -0.49951 | 272 ft | 114 kts | 90° |
| 2026-04-22 19:10 | 51.47752 | -0.48652 | 148 ft | 115 kts | 89° |
| 2026-04-22 19:10 | 51.47755 | -0.47436 | 88 ft | 99 kts | 90° |
| 2026-04-22 19:10 | 51.47757 | -0.46595 | 92 ft | 53 kts | 90° |
| 2026-04-22 19:11 | 51.47759 | -0.46243 | 90 ft | 27 kts | 88° |
| 2026-04-22 19:11 | 51.47760 | -0.45844 | 86 ft | 37 kts | 90° |
| 2026-04-22 19:11 | 51.47752 | -0.45550 | 88 ft | 22 kts | 114° |
| 2026-04-22 19:11 | 51.47640 | -0.45470 | 87 ft | 10 kts | 174° |
| 2026-04-22 19:12 | 51.47626 | -0.45469 | 87 ft | 0 kts | 181° |
| 2026-04-22 19:12 | 51.47625 | -0.45469 | 86 ft | 0 kts | 181° |
| 2026-04-22 19:12 | 51.47623 | -0.45469 | 86 ft | 2 kts | 182° |
| 2026-04-22 19:12 | 51.47602 | -0.45489 | 88 ft | 5 kts | 230° |
| 2026-04-22 19:13 | 51.47594 | -0.45568 | 88 ft | 10 kts | 267° |
| 2026-04-22 19:13 | 51.47596 | -0.45702 | 87 ft | 14 kts | 270° |
| 2026-04-22 19:13 | 51.47595 | -0.45890 | 89 ft | 19 kts | 269° |
| 2026-04-22 19:13 | 51.47595 | -0.46127 | 89 ft | 23 kts | 269° |
| 2026-04-22 19:14 | 51.47594 | -0.46410 | 89 ft | 27 kts | 270° |
| 2026-04-22 19:14 | 51.47593 | -0.46625 | 86 ft | 17 kts | 270° |
| 2026-04-22 19:14 | 51.47587 | -0.46836 | 87 ft | 21 kts | 258° |
| 2026-04-22 19:14 | 51.47582 | -0.47090 | 90 ft | 25 kts | 269° |
| 2026-04-22 19:15 | 51.47581 | -0.47284 | 90 ft | 28 kts | 269° |
| 2026-04-22 19:15 | 51.47580 | -0.47733 | 89 ft | 32 kts | 269° |
| 2026-04-22 19:15 | 51.47579 | -0.48111 | 88 ft | 30 kts | 269° |
| 2026-04-22 19:15 | 51.47576 | -0.48361 | 86 ft | 17 kts | 269° |
| 2026-04-22 19:16 | 51.47528 | -0.48477 | 88 ft | 16 kts | 180° |
| 2026-04-22 19:16 | 51.47496 | -0.48475 | 86 ft | 0 kts | 180° |
| 2026-04-22 19:16 | 51.47495 | -0.48475 | 86 ft | 1 kts | 181° |
| 2026-04-22 19:16 | 51.47477 | -0.48499 | 90 ft | 5 kts | 244° |
| 2026-04-22 19:17 | 51.47485 | -0.48585 | 87 ft | 11 kts | 280° |
| 2026-04-22 19:17 | 51.47487 | -0.48730 | 87 ft | 16 kts | 269° |
| 2026-04-22 19:17 | 51.47486 | -0.48810 | 87 ft | 4 kts | 268° |
| 2026-04-22 19:17 | 51.47459 | -0.48829 | 88 ft | 6 kts | 179° |
| 2026-04-22 19:18 | 51.47407 | -0.48829 | 86 ft | 2 kts | 180° |
| 2026-04-22 19:18 | 51.47404 | -0.48829 | 86 ft | 0 kts | 180° |